sensor_id;sensor_type;location;lat;lon;timestamp;P1;durP1;ratioP1;P2;durP2;ratioP2
70547;SDS011;58099;43.406;3.698;2022-12-29T00:01:17;14.93;;;7.90;;
70547;SDS011;58099;43.406;3.698;2022-12-29T00:03:45;13.80;;;7.87;;
70547;SDS011;58099;43.406;3.698;2022-12-29T00:06:11;15.20;;;7.55;;
70547;SDS011;58099;43.406;3.698;2022-12-29T00:08:37;14.68;;;7.38;;
70547;SDS011;58099;43.406;3.698;2022-12-29T00:11:09;15.00;;;7.13;;
70547;SDS011;58099;43.406;3.698;2022-12-29T00:13:39;18.08;;;7.97;;
70547;SDS011;58099;43.406;3.698;2022-12-29T00:16:25;17.27;;;8.10;;
70547;SDS011;58099;43.406;3.698;2022-12-29T00:18:53;16.02;;;7.45;;
70547;SDS011;58099;43.406;3.698;2022-12-29T00:21:20;15.52;;;7.93;;
70547;SDS011;58099;43.406;3.698;2022-12-29T00:24:05;14.47;;;7.20;;
70547;SDS011;58099;43.406;3.698;2022-12-29T00:27:07;15.52;;;7.68;;
70547;SDS011;58099;43.406;3.698;2022-12-29T00:29:54;15.50;;;7.90;;
70547;SDS011;58099;43.406;3.698;2022-12-29T00:32:39;14.80;;;7.57;;
70547;SDS011;58099;43.406;3.698;2022-12-29T00:37:53;14.07;;;7.40;;
70547;SDS011;58099;43.406;3.698;2022-12-29T00:40:41;18.65;;;8.80;;
70547;SDS011;58099;43.406;3.698;2022-12-29T00:43:25;16.00;;;8.15;;
70547;SDS011;58099;43.406;3.698;2022-12-29T00:46:09;15.30;;;8.07;;
70547;SDS011;58099;43.406;3.698;2022-12-29T00:48:35;17.53;;;8.37;;
70547;SDS011;58099;43.406;3.698;2022-12-29T00:51:19;14.60;;;7.70;;
70547;SDS011;58099;43.406;3.698;2022-12-29T00:53:45;16.30;;;8.15;;
70547;SDS011;58099;43.406;3.698;2022-12-29T00:56:11;19.17;;;8.07;;
70547;SDS011;58099;43.406;3.698;2022-12-29T00:58:36;15.90;;;8.17;;
70547;SDS011;58099;43.406;3.698;2022-12-29T01:01:03;17.88;;;8.20;;
70547;SDS011;58099;43.406;3.698;2022-12-29T01:03:30;18.40;;;8.52;;
70547;SDS011;58099;43.406;3.698;2022-12-29T01:06:00;16.60;;;8.33;;
70547;SDS011;58099;43.406;3.698;2022-12-29T01:08:29;16.67;;;8.85;;
70547;SDS011;58099;43.406;3.698;2022-12-29T01:10:59;17.88;;;8.52;;
70547;SDS011;58099;43.406;3.698;2022-12-29T01:13:25;18.60;;;9.32;;
70547;SDS011;58099;43.406;3.698;2022-12-29T01:15:51;17.67;;;8.53;;
70547;SDS011;58099;43.406;3.698;2022-12-29T01:18:18;18.17;;;8.98;;
70547;SDS011;58099;43.406;3.698;2022-12-29T01:20:44;18.25;;;9.15;;
70547;SDS011;58099;43.406;3.698;2022-12-29T01:23:09;21.23;;;9.03;;
70547;SDS011;58099;43.406;3.698;2022-12-29T01:25:35;17.95;;;8.35;;
70547;SDS011;58099;43.406;3.698;2022-12-29T01:28:01;22.10;;;9.47;;
70547;SDS011;58099;43.406;3.698;2022-12-29T01:30:26;17.05;;;8.57;;
70547;SDS011;58099;43.406;3.698;2022-12-29T01:32:52;15.80;;;8.50;;
70547;SDS011;58099;43.406;3.698;2022-12-29T01:35:18;15.30;;;8.45;;
70547;SDS011;58099;43.406;3.698;2022-12-29T01:37:44;18.67;;;8.40;;
70547;SDS011;58099;43.406;3.698;2022-12-29T01:40:10;16.48;;;8.25;;
70547;SDS011;58099;43.406;3.698;2022-12-29T01:42:36;13.13;;;7.90;;
70547;SDS011;58099;43.406;3.698;2022-12-29T01:45:19;16.37;;;8.10;;
70547;SDS011;58099;43.406;3.698;2022-12-29T01:47:52;14.30;;;8.10;;
70547;SDS011;58099;43.406;3.698;2022-12-29T01:50:23;14.70;;;7.30;;
70547;SDS011;58099;43.406;3.698;2022-12-29T01:53:04;13.53;;;7.07;;
70547;SDS011;58099;43.406;3.698;2022-12-29T01:55:34;14.80;;;7.55;;
70547;SDS011;58099;43.406;3.698;2022-12-29T01:58:07;16.73;;;7.63;;
70547;SDS011;58099;43.406;3.698;2022-12-29T02:00:34;15.02;;;7.70;;
70547;SDS011;58099;43.406;3.698;2022-12-29T02:03:01;15.40;;;7.50;;
70547;SDS011;58099;43.406;3.698;2022-12-29T02:05:38;16.97;;;7.27;;
70547;SDS011;58099;43.406;3.698;2022-12-29T02:08:12;17.27;;;7.65;;
70547;SDS011;58099;43.406;3.698;2022-12-29T02:10:38;14.30;;;7.20;;
70547;SDS011;58099;43.406;3.698;2022-12-29T02:13:05;16.43;;;7.67;;
70547;SDS011;58099;43.406;3.698;2022-12-29T02:15:50;14.45;;;7.60;;
70547;SDS011;58099;43.406;3.698;2022-12-29T02:21:48;15.63;;;6.70;;
70547;SDS011;58099;43.406;3.698;2022-12-29T02:34:07;13.30;;;7.10;;
70547;SDS011;58099;43.406;3.698;2022-12-29T02:36:09;13.88;;;6.95;;
70547;SDS011;58099;43.406;3.698;2022-12-29T02:41:23;17.47;;;7.43;;
70547;SDS011;58099;43.406;3.698;2022-12-29T02:44:26;16.00;;;7.55;;
70547;SDS011;58099;43.406;3.698;2022-12-29T02:47:09;15.98;;;7.15;;
70547;SDS011;58099;43.406;3.698;2022-12-29T02:52:34;16.98;;;7.32;;
70547;SDS011;58099;43.406;3.698;2022-12-29T02:55:10;14.60;;;7.13;;
70547;SDS011;58099;43.406;3.698;2022-12-29T02:57:36;13.50;;;7.05;;
70547;SDS011;58099;43.406;3.698;2022-12-29T03:00:05;16.25;;;7.57;;
70547;SDS011;58099;43.406;3.698;2022-12-29T03:03:05;14.57;;;7.22;;
70547;SDS011;58099;43.406;3.698;2022-12-29T03:08:48;12.77;;;6.80;;
70547;SDS011;58099;43.406;3.698;2022-12-29T03:11:25;15.88;;;7.05;;
70547;SDS011;58099;43.406;3.698;2022-12-29T03:15:01;14.75;;;7.05;;
70547;SDS011;58099;43.406;3.698;2022-12-29T03:17:31;13.63;;;7.15;;
70547;SDS011;58099;43.406;3.698;2022-12-29T03:20:07;17.30;;;7.10;;
70547;SDS011;58099;43.406;3.698;2022-12-29T03:22:36;15.30;;;7.37;;
70547;SDS011;58099;43.406;3.698;2022-12-29T03:25:19;14.38;;;7.03;;
70547;SDS011;58099;43.406;3.698;2022-12-29T03:27:49;14.15;;;6.45;;
70547;SDS011;58099;43.406;3.698;2022-12-29T03:30:20;14.35;;;6.93;;
70547;SDS011;58099;43.406;3.698;2022-12-29T03:32:49;13.93;;;7.15;;
70547;SDS011;58099;43.406;3.698;2022-12-29T03:35:25;15.20;;;7.03;;
70547;SDS011;58099;43.406;3.698;2022-12-29T03:37:53;15.70;;;6.82;;
70547;SDS011;58099;43.406;3.698;2022-12-29T03:40:24;12.27;;;6.70;;
70547;SDS011;58099;43.406;3.698;2022-12-29T03:42:52;12.65;;;6.78;;
70547;SDS011;58099;43.406;3.698;2022-12-29T03:45:19;12.25;;;6.30;;
70547;SDS011;58099;43.406;3.698;2022-12-29T03:47:45;10.97;;;5.70;;
70547;SDS011;58099;43.406;3.698;2022-12-29T03:50:11;11.60;;;5.95;;
70547;SDS011;58099;43.406;3.698;2022-12-29T03:52:37;13.47;;;6.40;;
70547;SDS011;58099;43.406;3.698;2022-12-29T03:55:04;16.67;;;6.60;;
70547;SDS011;58099;43.406;3.698;2022-12-29T03:57:30;11.45;;;6.13;;
70547;SDS011;58099;43.406;3.698;2022-12-29T03:59:55;11.57;;;6.50;;
70547;SDS011;58099;43.406;3.698;2022-12-29T04:02:21;12.15;;;5.85;;
70547;SDS011;58099;43.406;3.698;2022-12-29T04:04:47;12.20;;;6.23;;
70547;SDS011;58099;43.406;3.698;2022-12-29T04:07:13;12.45;;;6.35;;
70547;SDS011;58099;43.406;3.698;2022-12-29T04:09:38;12.80;;;6.27;;
70547;SDS011;58099;43.406;3.698;2022-12-29T04:12:04;14.27;;;6.18;;
70547;SDS011;58099;43.406;3.698;2022-12-29T04:14:30;10.03;;;5.90;;
70547;SDS011;58099;43.406;3.698;2022-12-29T04:16:55;13.95;;;6.22;;
70547;SDS011;58099;43.406;3.698;2022-12-29T04:19:21;14.30;;;5.83;;
70547;SDS011;58099;43.406;3.698;2022-12-29T04:21:47;12.33;;;6.57;;
70547;SDS011;58099;43.406;3.698;2022-12-29T04:24:12;11.27;;;5.90;;
70547;SDS011;58099;43.406;3.698;2022-12-29T04:26:38;12.43;;;5.90;;
70547;SDS011;58099;43.406;3.698;2022-12-29T04:29:04;12.98;;;6.10;;
70547;SDS011;58099;43.406;3.698;2022-12-29T04:31:30;11.77;;;5.90;;
70547;SDS011;58099;43.406;3.698;2022-12-29T04:33:55;11.50;;;6.07;;
70547;SDS011;58099;43.406;3.698;2022-12-29T04:36:22;11.77;;;6.75;;
70547;SDS011;58099;43.406;3.698;2022-12-29T04:38:48;11.77;;;6.32;;
70547;SDS011;58099;43.406;3.698;2022-12-29T04:41:14;12.80;;;5.80;;
70547;SDS011;58099;43.406;3.698;2022-12-29T04:43:40;10.38;;;5.60;;
70547;SDS011;58099;43.406;3.698;2022-12-29T04:46:06;13.63;;;6.10;;
70547;SDS011;58099;43.406;3.698;2022-12-29T04:48:31;13.55;;;6.10;;
70547;SDS011;58099;43.406;3.698;2022-12-29T04:50:57;12.23;;;6.53;;
70547;SDS011;58099;43.406;3.698;2022-12-29T04:53:23;13.40;;;7.00;;
70547;SDS011;58099;43.406;3.698;2022-12-29T04:55:49;13.10;;;7.17;;
70547;SDS011;58099;43.406;3.698;2022-12-29T04:58:16;10.88;;;6.28;;
70547;SDS011;58099;43.406;3.698;2022-12-29T05:00:42;11.70;;;5.55;;
70547;SDS011;58099;43.406;3.698;2022-12-29T05:03:07;14.32;;;6.43;;
70547;SDS011;58099;43.406;3.698;2022-12-29T05:05:33;13.13;;;6.10;;
70547;SDS011;58099;43.406;3.698;2022-12-29T05:07:59;17.27;;;6.23;;
70547;SDS011;58099;43.406;3.698;2022-12-29T05:10:24;14.82;;;6.68;;
70547;SDS011;58099;43.406;3.698;2022-12-29T05:12:50;12.57;;;6.50;;
70547;SDS011;58099;43.406;3.698;2022-12-29T05:15:16;14.15;;;6.93;;
70547;SDS011;58099;43.406;3.698;2022-12-29T05:17:42;11.63;;;5.70;;
70547;SDS011;58099;43.406;3.698;2022-12-29T05:20:08;12.20;;;6.30;;
70547;SDS011;58099;43.406;3.698;2022-12-29T05:22:34;11.30;;;6.60;;
70547;SDS011;58099;43.406;3.698;2022-12-29T05:25:03;11.57;;;6.05;;
70547;SDS011;58099;43.406;3.698;2022-12-29T05:27:30;14.80;;;6.90;;
70547;SDS011;58099;43.406;3.698;2022-12-29T05:29:56;14.50;;;6.20;;
70547;SDS011;58099;43.406;3.698;2022-12-29T05:32:22;11.52;;;6.20;;
70547;SDS011;58099;43.406;3.698;2022-12-29T05:34:52;11.55;;;6.28;;
70547;SDS011;58099;43.406;3.698;2022-12-29T05:37:18;11.43;;;6.50;;
70547;SDS011;58099;43.406;3.698;2022-12-29T05:39:46;12.87;;;6.00;;
70547;SDS011;58099;43.406;3.698;2022-12-29T05:42:12;11.15;;;5.90;;
70547;SDS011;58099;43.406;3.698;2022-12-29T05:44:39;13.05;;;6.60;;
70547;SDS011;58099;43.406;3.698;2022-12-29T05:47:09;12.00;;;5.78;;
70547;SDS011;58099;43.406;3.698;2022-12-29T05:49:34;13.40;;;6.17;;
70547;SDS011;58099;43.406;3.698;2022-12-29T05:52:00;12.88;;;6.38;;
70547;SDS011;58099;43.406;3.698;2022-12-29T05:54:26;15.43;;;6.18;;
70547;SDS011;58099;43.406;3.698;2022-12-29T05:56:52;12.10;;;6.55;;
70547;SDS011;58099;43.406;3.698;2022-12-29T05:59:17;12.90;;;6.40;;
70547;SDS011;58099;43.406;3.698;2022-12-29T06:01:43;12.27;;;5.85;;
70547;SDS011;58099;43.406;3.698;2022-12-29T06:04:09;12.73;;;5.87;;
70547;SDS011;58099;43.406;3.698;2022-12-29T06:06:35;11.63;;;6.15;;
70547;SDS011;58099;43.406;3.698;2022-12-29T06:09:01;11.93;;;6.00;;
70547;SDS011;58099;43.406;3.698;2022-12-29T06:11:26;11.38;;;5.85;;
70547;SDS011;58099;43.406;3.698;2022-12-29T06:13:52;13.70;;;6.43;;
70547;SDS011;58099;43.406;3.698;2022-12-29T06:16:18;12.57;;;6.35;;
70547;SDS011;58099;43.406;3.698;2022-12-29T06:18:43;12.83;;;6.03;;
70547;SDS011;58099;43.406;3.698;2022-12-29T06:21:09;14.03;;;5.97;;
70547;SDS011;58099;43.406;3.698;2022-12-29T06:23:34;12.82;;;6.53;;
70547;SDS011;58099;43.406;3.698;2022-12-29T06:26:00;11.27;;;5.87;;
70547;SDS011;58099;43.406;3.698;2022-12-29T06:28:26;11.05;;;6.05;;
70547;SDS011;58099;43.406;3.698;2022-12-29T06:30:52;10.87;;;5.90;;
70547;SDS011;58099;43.406;3.698;2022-12-29T06:33:18;11.30;;;5.85;;
70547;SDS011;58099;43.406;3.698;2022-12-29T06:35:44;12.25;;;6.10;;
70547;SDS011;58099;43.406;3.698;2022-12-29T06:38:10;11.90;;;5.40;;
70547;SDS011;58099;43.406;3.698;2022-12-29T06:40:37;11.45;;;5.57;;
70547;SDS011;58099;43.406;3.698;2022-12-29T06:43:02;12.02;;;6.15;;
70547;SDS011;58099;43.406;3.698;2022-12-29T06:45:28;10.63;;;5.57;;
70547;SDS011;58099;43.406;3.698;2022-12-29T06:47:54;13.05;;;6.18;;
70547;SDS011;58099;43.406;3.698;2022-12-29T06:50:22;11.73;;;5.80;;
70547;SDS011;58099;43.406;3.698;2022-12-29T06:52:48;13.25;;;6.32;;
70547;SDS011;58099;43.406;3.698;2022-12-29T06:55:14;12.83;;;6.63;;
70547;SDS011;58099;43.406;3.698;2022-12-29T06:57:40;12.75;;;6.32;;
70547;SDS011;58099;43.406;3.698;2022-12-29T07:00:06;12.60;;;6.40;;
70547;SDS011;58099;43.406;3.698;2022-12-29T07:02:32;14.15;;;6.40;;
70547;SDS011;58099;43.406;3.698;2022-12-29T07:04:58;10.20;;;5.60;;
70547;SDS011;58099;43.406;3.698;2022-12-29T07:07:23;10.57;;;6.10;;
70547;SDS011;58099;43.406;3.698;2022-12-29T07:09:49;12.75;;;6.22;;
70547;SDS011;58099;43.406;3.698;2022-12-29T07:12:15;11.70;;;5.67;;
70547;SDS011;58099;43.406;3.698;2022-12-29T07:14:41;13.43;;;6.30;;
70547;SDS011;58099;43.406;3.698;2022-12-29T07:17:06;11.67;;;6.17;;
70547;SDS011;58099;43.406;3.698;2022-12-29T07:19:32;12.68;;;6.03;;
70547;SDS011;58099;43.406;3.698;2022-12-29T07:21:58;11.63;;;6.30;;
70547;SDS011;58099;43.406;3.698;2022-12-29T07:24:24;11.07;;;6.27;;
70547;SDS011;58099;43.406;3.698;2022-12-29T07:26:54;12.75;;;6.15;;
70547;SDS011;58099;43.406;3.698;2022-12-29T07:29:20;11.88;;;6.13;;
70547;SDS011;58099;43.406;3.698;2022-12-29T07:31:46;14.20;;;6.07;;
70547;SDS011;58099;43.406;3.698;2022-12-29T07:34:11;11.85;;;5.95;;
70547;SDS011;58099;43.406;3.698;2022-12-29T07:36:37;12.17;;;6.23;;
70547;SDS011;58099;43.406;3.698;2022-12-29T07:39:03;13.03;;;5.60;;
70547;SDS011;58099;43.406;3.698;2022-12-29T07:41:29;12.95;;;5.78;;
70547;SDS011;58099;43.406;3.698;2022-12-29T07:43:55;18.13;;;6.45;;
70547;SDS011;58099;43.406;3.698;2022-12-29T07:46:21;12.25;;;6.10;;
70547;SDS011;58099;43.406;3.698;2022-12-29T07:48:48;14.48;;;6.35;;
70547;SDS011;58099;43.406;3.698;2022-12-29T07:51:14;11.80;;;5.37;;
70547;SDS011;58099;43.406;3.698;2022-12-29T07:53:40;10.40;;;5.30;;
70547;SDS011;58099;43.406;3.698;2022-12-29T07:56:06;11.73;;;5.83;;
70547;SDS011;58099;43.406;3.698;2022-12-29T07:58:31;14.60;;;5.80;;
70547;SDS011;58099;43.406;3.698;2022-12-29T08:00:57;11.60;;;5.70;;
70547;SDS011;58099;43.406;3.698;2022-12-29T08:03:23;12.85;;;5.47;;
70547;SDS011;58099;43.406;3.698;2022-12-29T08:05:50;11.82;;;5.60;;
70547;SDS011;58099;43.406;3.698;2022-12-29T08:08:16;11.03;;;5.40;;
70547;SDS011;58099;43.406;3.698;2022-12-29T08:10:42;14.15;;;5.03;;
70547;SDS011;58099;43.406;3.698;2022-12-29T08:13:08;12.23;;;5.47;;
70547;SDS011;58099;43.406;3.698;2022-12-29T08:15:33;10.05;;;5.53;;
70547;SDS011;58099;43.406;3.698;2022-12-29T08:18:00;16.97;;;6.63;;
70547;SDS011;58099;43.406;3.698;2022-12-29T08:20:26;14.43;;;6.35;;
70547;SDS011;58099;43.406;3.698;2022-12-29T08:22:52;11.40;;;5.50;;
70547;SDS011;58099;43.406;3.698;2022-12-29T08:25:18;14.30;;;6.47;;
70547;SDS011;58099;43.406;3.698;2022-12-29T08:27:44;14.60;;;6.95;;
70547;SDS011;58099;43.406;3.698;2022-12-29T08:30:10;13.70;;;7.55;;
70547;SDS011;58099;43.406;3.698;2022-12-29T08:32:36;14.93;;;8.07;;
70547;SDS011;58099;43.406;3.698;2022-12-29T08:35:02;16.08;;;7.50;;
70547;SDS011;58099;43.406;3.698;2022-12-29T08:37:28;15.47;;;7.60;;
70547;SDS011;58099;43.406;3.698;2022-12-29T08:39:55;16.90;;;7.28;;
70547;SDS011;58099;43.406;3.698;2022-12-29T08:42:20;13.75;;;6.93;;
70547;SDS011;58099;43.406;3.698;2022-12-29T08:44:46;13.60;;;7.33;;
70547;SDS011;58099;43.406;3.698;2022-12-29T08:47:12;16.65;;;7.15;;
70547;SDS011;58099;43.406;3.698;2022-12-29T08:49:37;16.58;;;7.45;;
70547;SDS011;58099;43.406;3.698;2022-12-29T08:52:03;15.23;;;9.00;;
70547;SDS011;58099;43.406;3.698;2022-12-29T08:54:29;16.13;;;7.70;;
70547;SDS011;58099;43.406;3.698;2022-12-29T08:56:55;10.93;;;6.63;;
70547;SDS011;58099;43.406;3.698;2022-12-29T08:59:20;15.50;;;6.33;;
70547;SDS011;58099;43.406;3.698;2022-12-29T09:01:46;13.60;;;6.72;;
70547;SDS011;58099;43.406;3.698;2022-12-29T09:04:12;14.53;;;6.97;;
70547;SDS011;58099;43.406;3.698;2022-12-29T09:06:38;13.60;;;6.85;;
70547;SDS011;58099;43.406;3.698;2022-12-29T09:09:04;12.00;;;5.70;;
70547;SDS011;58099;43.406;3.698;2022-12-29T09:11:29;12.00;;;5.47;;
70547;SDS011;58099;43.406;3.698;2022-12-29T09:13:55;11.85;;;5.00;;
70547;SDS011;58099;43.406;3.698;2022-12-29T09:16:40;10.70;;;4.70;;
70547;SDS011;58099;43.406;3.698;2022-12-29T09:19:26;9.43;;;4.47;;
70547;SDS011;58099;43.406;3.698;2022-12-29T09:21:52;9.10;;;4.50;;
70547;SDS011;58099;43.406;3.698;2022-12-29T09:24:18;14.40;;;4.67;;
70547;SDS011;58099;43.406;3.698;2022-12-29T09:26:43;10.07;;;5.25;;
70547;SDS011;58099;43.406;3.698;2022-12-29T09:29:09;8.93;;;4.73;;
70547;SDS011;58099;43.406;3.698;2022-12-29T09:31:35;9.68;;;5.13;;
70547;SDS011;58099;43.406;3.698;2022-12-29T09:34:00;8.70;;;4.78;;
70547;SDS011;58099;43.406;3.698;2022-12-29T09:36:26;8.17;;;4.07;;
70547;SDS011;58099;43.406;3.698;2022-12-29T09:38:52;9.68;;;4.72;;
70547;SDS011;58099;43.406;3.698;2022-12-29T09:41:26;10.30;;;4.68;;
70547;SDS011;58099;43.406;3.698;2022-12-29T09:44:06;9.80;;;4.90;;
70547;SDS011;58099;43.406;3.698;2022-12-29T09:46:37;9.90;;;5.60;;
70547;SDS011;58099;43.406;3.698;2022-12-29T09:51:49;10.38;;;4.35;;
70547;SDS011;58099;43.406;3.698;2022-12-29T09:57:13;10.45;;;4.78;;
70547;SDS011;58099;43.406;3.698;2022-12-29T09:59:44;9.47;;;4.73;;
70547;SDS011;58099;43.406;3.698;2022-12-29T10:04:53;10.95;;;4.82;;
70547;SDS011;58099;43.406;3.698;2022-12-29T10:21:05;8.70;;;4.33;;
70547;SDS011;58099;43.406;3.698;2022-12-29T10:23:44;10.30;;;4.30;;
70547;SDS011;58099;43.406;3.698;2022-12-29T10:26:14;9.00;;;4.82;;
70547;SDS011;58099;43.406;3.698;2022-12-29T10:29:05;9.07;;;5.03;;
70547;SDS011;58099;43.406;3.698;2022-12-29T10:31:35;8.32;;;5.03;;
70547;SDS011;58099;43.406;3.698;2022-12-29T10:34:18;8.27;;;4.73;;
70547;SDS011;58099;43.406;3.698;2022-12-29T10:36:57;7.88;;;4.03;;
70547;SDS011;58099;43.406;3.698;2022-12-29T10:39:40;10.15;;;5.00;;
70547;SDS011;58099;43.406;3.698;2022-12-29T10:42:14;10.10;;;4.53;;
70547;SDS011;58099;43.406;3.698;2022-12-29T10:44:46;8.68;;;4.68;;
70547;SDS011;58099;43.406;3.698;2022-12-29T10:47:13;7.93;;;4.33;;
70547;SDS011;58099;43.406;3.698;2022-12-29T10:49:44;9.70;;;4.60;;
70547;SDS011;58099;43.406;3.698;2022-12-29T10:52:12;11.18;;;4.65;;
70547;SDS011;58099;43.406;3.698;2022-12-29T10:57:52;9.35;;;5.05;;
70547;SDS011;58099;43.406;3.698;2022-12-29T11:00:10;11.33;;;5.63;;
70547;SDS011;58099;43.406;3.698;2022-12-29T11:08:17;9.20;;;4.55;;
70547;SDS011;58099;43.406;3.698;2022-12-29T11:10:47;10.52;;;4.97;;
70547;SDS011;58099;43.406;3.698;2022-12-29T11:13:30;10.03;;;5.07;;
70547;SDS011;58099;43.406;3.698;2022-12-29T11:16:00;10.35;;;5.18;;
70547;SDS011;58099;43.406;3.698;2022-12-29T11:21:06;11.02;;;5.18;;
70547;SDS011;58099;43.406;3.698;2022-12-29T11:24:03;8.60;;;5.10;;
70547;SDS011;58099;43.406;3.698;2022-12-29T11:26:31;11.47;;;5.63;;
70547;SDS011;58099;43.406;3.698;2022-12-29T11:31:41;8.95;;;5.30;;
70547;SDS011;58099;43.406;3.698;2022-12-29T11:34:15;14.23;;;6.35;;
70547;SDS011;58099;43.406;3.698;2022-12-29T11:36:53;11.50;;;5.38;;
70547;SDS011;58099;43.406;3.698;2022-12-29T11:42:19;11.73;;;6.15;;
70547;SDS011;58099;43.406;3.698;2022-12-29T11:45:05;12.93;;;6.55;;
70547;SDS011;58099;43.406;3.698;2022-12-29T11:47:52;13.63;;;6.80;;
70547;SDS011;58099;43.406;3.698;2022-12-29T11:50:28;16.25;;;5.82;;
70547;SDS011;58099;43.406;3.698;2022-12-29T11:53:03;11.70;;;6.00;;
70547;SDS011;58099;43.406;3.698;2022-12-29T11:55:41;14.00;;;6.10;;
70547;SDS011;58099;43.406;3.698;2022-12-29T11:58:30;12.70;;;6.10;;
70547;SDS011;58099;43.406;3.698;2022-12-29T12:01:01;11.73;;;6.40;;
70547;SDS011;58099;43.406;3.698;2022-12-29T12:03:28;11.23;;;6.43;;
70547;SDS011;58099;43.406;3.698;2022-12-29T12:05:57;13.40;;;6.37;;
70547;SDS011;58099;43.406;3.698;2022-12-29T12:14:14;17.48;;;6.00;;
70547;SDS011;58099;43.406;3.698;2022-12-29T12:16:52;13.60;;;7.10;;
70547;SDS011;58099;43.406;3.698;2022-12-29T12:19:30;15.97;;;6.17;;
70547;SDS011;58099;43.406;3.698;2022-12-29T12:22:15;12.63;;;6.50;;
70547;SDS011;58099;43.406;3.698;2022-12-29T12:24:54;12.60;;;6.78;;
70547;SDS011;58099;43.406;3.698;2022-12-29T12:27:32;15.65;;;6.65;;
70547;SDS011;58099;43.406;3.698;2022-12-29T12:30:21;12.05;;;6.35;;
70547;SDS011;58099;43.406;3.698;2022-12-29T12:35:34;12.27;;;6.38;;
70547;SDS011;58099;43.406;3.698;2022-12-29T12:41:09;14.60;;;7.65;;
70547;SDS011;58099;43.406;3.698;2022-12-29T12:43:52;14.32;;;7.35;;
70547;SDS011;58099;43.406;3.698;2022-12-29T12:47:14;13.50;;;6.87;;
70547;SDS011;58099;43.406;3.698;2022-12-29T12:55:00;14.38;;;7.22;;
70547;SDS011;58099;43.406;3.698;2022-12-29T12:57:53;14.90;;;7.22;;
70547;SDS011;58099;43.406;3.698;2022-12-29T13:00:23;16.00;;;7.30;;
70547;SDS011;58099;43.406;3.698;2022-12-29T13:06:09;15.00;;;6.97;;
70547;SDS011;58099;43.406;3.698;2022-12-29T13:19:59;17.50;;;8.82;;
70547;SDS011;58099;43.406;3.698;2022-12-29T13:28:59;15.13;;;7.57;;
70547;SDS011;58099;43.406;3.698;2022-12-29T13:37:19;15.65;;;8.43;;
70547;SDS011;58099;43.406;3.698;2022-12-29T13:39:57;13.70;;;7.80;;
70547;SDS011;58099;43.406;3.698;2022-12-29T13:42:28;13.93;;;7.23;;
70547;SDS011;58099;43.406;3.698;2022-12-29T13:50:05;15.90;;;8.48;;
70547;SDS011;58099;43.406;3.698;2022-12-29T13:52:42;17.15;;;9.80;;
70547;SDS011;58099;43.406;3.698;2022-12-29T13:55:35;16.33;;;8.00;;
70547;SDS011;58099;43.406;3.698;2022-12-29T13:58:05;17.65;;;8.88;;
70547;SDS011;58099;43.406;3.698;2022-12-29T14:00:38;16.33;;;9.02;;
70547;SDS011;58099;43.406;3.698;2022-12-29T14:03:24;15.02;;;8.18;;
70547;SDS011;58099;43.406;3.698;2022-12-29T14:08:52;14.67;;;8.03;;
70547;SDS011;58099;43.406;3.698;2022-12-29T14:11:39;13.57;;;7.60;;
70547;SDS011;58099;43.406;3.698;2022-12-29T14:14:12;16.23;;;7.95;;
70547;SDS011;58099;43.406;3.698;2022-12-29T14:16:39;15.35;;;7.25;;
70547;SDS011;58099;43.406;3.698;2022-12-29T14:21:59;17.77;;;7.90;;
70547;SDS011;58099;43.406;3.698;2022-12-29T14:34:46;15.33;;;9.10;;
70547;SDS011;58099;43.406;3.698;2022-12-29T14:37:46;13.30;;;7.32;;
70547;SDS011;58099;43.406;3.698;2022-12-29T14:42:43;13.27;;;7.40;;
70547;SDS011;58099;43.406;3.698;2022-12-29T14:47:44;15.30;;;8.10;;
70547;SDS011;58099;43.406;3.698;2022-12-29T14:52:47;14.70;;;8.00;;
70547;SDS011;58099;43.406;3.698;2022-12-29T14:55:41;13.80;;;8.17;;
70547;SDS011;58099;43.406;3.698;2022-12-29T14:58:29;15.02;;;8.75;;
70547;SDS011;58099;43.406;3.698;2022-12-29T15:01:03;12.68;;;7.32;;
70547;SDS011;58099;43.406;3.698;2022-12-29T15:03:43;12.95;;;7.00;;
70547;SDS011;58099;43.406;3.698;2022-12-29T15:06:15;14.88;;;8.38;;
70547;SDS011;58099;43.406;3.698;2022-12-29T15:16:58;15.13;;;7.90;;
70547;SDS011;58099;43.406;3.698;2022-12-29T15:19:24;14.23;;;7.40;;
70547;SDS011;58099;43.406;3.698;2022-12-29T15:21:52;14.60;;;8.73;;
70547;SDS011;58099;43.406;3.698;2022-12-29T15:24:19;15.18;;;8.45;;
70547;SDS011;58099;43.406;3.698;2022-12-29T15:26:46;16.45;;;8.63;;
70547;SDS011;58099;43.406;3.698;2022-12-29T15:29:36;16.27;;;8.02;;
70547;SDS011;58099;43.406;3.698;2022-12-29T15:34:43;16.17;;;8.55;;
70547;SDS011;58099;43.406;3.698;2022-12-29T15:37:21;15.80;;;8.60;;
70547;SDS011;58099;43.406;3.698;2022-12-29T15:39:57;17.80;;;8.95;;
70547;SDS011;58099;43.406;3.698;2022-12-29T15:45:21;19.13;;;9.32;;
70547;SDS011;58099;43.406;3.698;2022-12-29T15:47:55;19.40;;;9.52;;
70547;SDS011;58099;43.406;3.698;2022-12-29T15:50:28;18.08;;;9.90;;
70547;SDS011;58099;43.406;3.698;2022-12-29T15:52:56;17.42;;;8.73;;
70547;SDS011;58099;43.406;3.698;2022-12-29T15:55:28;18.27;;;8.30;;
70547;SDS011;58099;43.406;3.698;2022-12-29T15:58:01;16.58;;;9.38;;
70547;SDS011;58099;43.406;3.698;2022-12-29T16:00:29;19.85;;;9.10;;
70547;SDS011;58099;43.406;3.698;2022-12-29T16:03:00;17.92;;;8.68;;
70547;SDS011;58099;43.406;3.698;2022-12-29T16:05:31;15.00;;;8.40;;
70547;SDS011;58099;43.406;3.698;2022-12-29T16:08:02;15.97;;;8.50;;
70547;SDS011;58099;43.406;3.698;2022-12-29T16:10:32;14.13;;;7.45;;
70547;SDS011;58099;43.406;3.698;2022-12-29T16:13:44;15.45;;;8.38;;
70547;SDS011;58099;43.406;3.698;2022-12-29T16:15:58;19.63;;;8.40;;
70547;SDS011;58099;43.406;3.698;2022-12-29T16:18:28;14.73;;;8.82;;
70547;SDS011;58099;43.406;3.698;2022-12-29T16:20:59;12.30;;;6.07;;
70547;SDS011;58099;43.406;3.698;2022-12-29T16:23:26;14.80;;;7.20;;
70547;SDS011;58099;43.406;3.698;2022-12-29T16:25:53;15.40;;;9.10;;
70547;SDS011;58099;43.406;3.698;2022-12-29T16:28:23;15.52;;;7.63;;
70547;SDS011;58099;43.406;3.698;2022-12-29T16:31:13;17.77;;;9.25;;
70547;SDS011;58099;43.406;3.698;2022-12-29T16:33:50;15.23;;;9.63;;
70547;SDS011;58099;43.406;3.698;2022-12-29T16:39:54;18.58;;;11.73;;
70547;SDS011;58099;43.406;3.698;2022-12-29T16:41:57;18.98;;;11.20;;
70547;SDS011;58099;43.406;3.698;2022-12-29T16:44:24;19.35;;;10.73;;
70547;SDS011;58099;43.406;3.698;2022-12-29T16:49:26;15.70;;;9.80;;
70547;SDS011;58099;43.406;3.698;2022-12-29T16:51:53;14.60;;;10.20;;
70547;SDS011;58099;43.406;3.698;2022-12-29T16:54:22;19.77;;;11.63;;
70547;SDS011;58099;43.406;3.698;2022-12-29T16:57:08;19.73;;;9.75;;
70547;SDS011;58099;43.406;3.698;2022-12-29T16:59:35;17.80;;;10.47;;
70547;SDS011;58099;43.406;3.698;2022-12-29T17:02:11;19.23;;;10.43;;
70547;SDS011;58099;43.406;3.698;2022-12-29T17:04:40;14.68;;;9.07;;
70547;SDS011;58099;43.406;3.698;2022-12-29T17:07:15;17.92;;;9.32;;
70547;SDS011;58099;43.406;3.698;2022-12-29T17:09:42;15.93;;;9.27;;
70547;SDS011;58099;43.406;3.698;2022-12-29T17:12:08;16.15;;;9.13;;
70547;SDS011;58099;43.406;3.698;2022-12-29T17:14:44;14.75;;;8.93;;
70547;SDS011;58099;43.406;3.698;2022-12-29T17:17:55;19.55;;;9.48;;
70547;SDS011;58099;43.406;3.698;2022-12-29T17:20:03;15.97;;;9.57;;
70547;SDS011;58099;43.406;3.698;2022-12-29T17:22:40;15.02;;;9.23;;
70547;SDS011;58099;43.406;3.698;2022-12-29T17:25:06;14.85;;;8.88;;
70547;SDS011;58099;43.406;3.698;2022-12-29T17:27:36;17.50;;;9.90;;
70547;SDS011;58099;43.406;3.698;2022-12-29T17:30:13;17.13;;;10.15;;
70547;SDS011;58099;43.406;3.698;2022-12-29T17:32:45;18.02;;;9.50;;